createdAt,value
2018-05-25T00:00:01.263Z,15.41
2018-05-25T00:02:28.806Z,15.41
2018-05-25T00:04:56.298Z,15.43
2018-05-25T00:07:23.821Z,15.46
2018-05-25T00:09:51.391Z,15.46
2018-05-25T00:12:18.898Z,15.42
2018-05-25T00:14:46.437Z,15.43
2018-05-25T00:17:13.943Z,15.43
2018-05-25T00:19:41.460Z,15.41
2018-05-25T00:22:08.982Z,15.38
2018-05-25T00:24:36.496Z,15.36
2018-05-25T00:27:04.048Z,15.38
2018-05-25T00:29:31.579Z,15.43
2018-05-25T00:31:59.094Z,15.42
2018-05-25T00:34:26.632Z,15.39
2018-05-25T00:36:54.171Z,15.34
2018-05-25T00:39:21.697Z,15.31
2018-05-25T00:41:49.235Z,15.28
2018-05-25T00:44:16.733Z,15.25
2018-05-25T00:46:44.254Z,15.24
2018-05-25T00:49:11.813Z,15.23
2018-05-25T00:51:39.377Z,15.19
2018-05-25T00:54:06.920Z,15.16
2018-05-25T00:56:34.449Z,15.14
2018-05-25T00:59:01.992Z,15.11
2018-05-25T01:01:29.513Z,15.06
2018-05-25T01:03:57.070Z,15.04
2018-05-25T01:06:24.611Z,14.99
2018-05-25T01:08:52.127Z,14.96
2018-05-25T01:11:19.677Z,14.96
2018-05-25T01:13:47.183Z,14.95
2018-05-25T01:16:14.767Z,14.94
2018-05-25T01:18:42.299Z,14.93
2018-05-25T01:21:09.897Z,14.95
2018-05-25T01:23:37.451Z,14.97
2018-05-25T01:26:04.963Z,14.99
2018-05-25T01:28:32.550Z,15.01
2018-05-25T01:31:00.083Z,15.04
2018-05-25T01:33:27.615Z,15.03
2018-05-25T01:35:55.140Z,15.02
2018-05-25T01:38:22.672Z,14.97
2018-05-25T01:40:50.231Z,14.96
2018-05-25T01:43:18.693Z,14.93
2018-05-25T01:45:46.206Z,14.96
2018-05-25T01:48:13.731Z,14.95
2018-05-25T01:50:41.252Z,14.93
2018-05-25T01:53:08.787Z,14.90
2018-05-25T01:55:36.296Z,14.87
2018-05-25T01:58:03.843Z,14.85
2018-05-25T02:00:31.395Z,14.85
2018-05-25T02:02:58.949Z,14.83
2018-05-25T02:05:26.487Z,14.82
2018-05-25T02:07:54.010Z,14.80
2018-05-25T02:10:21.519Z,14.79
2018-05-25T02:12:49.079Z,14.77
2018-05-25T02:15:16.588Z,14.77
2018-05-25T02:17:44.106Z,14.76
2018-05-25T02:20:11.622Z,14.76
2018-05-25T02:22:39.170Z,14.72
2018-05-25T02:25:06.696Z,14.67
2018-05-25T02:27:34.211Z,14.65
2018-05-25T02:30:01.747Z,14.63
2018-05-25T02:32:29.266Z,14.59
2018-05-25T02:34:57.172Z,14.55
2018-05-25T02:37:24.706Z,14.53
2018-05-25T02:39:52.218Z,14.51
2018-05-25T02:42:19.741Z,14.52
2018-05-25T02:44:47.241Z,14.48
2018-05-25T02:47:14.765Z,14.43
2018-05-25T02:49:42.325Z,14.39
2018-05-25T02:52:09.825Z,14.37
2018-05-25T02:54:37.365Z,14.32
2018-05-25T02:57:04.863Z,14.26
2018-05-25T02:59:32.369Z,14.22
2018-05-25T03:01:59.890Z,14.16
2018-05-25T03:04:27.426Z,14.10
2018-05-25T03:06:54.959Z,14.06
2018-05-25T03:09:22.491Z,13.98
2018-05-25T03:11:50.029Z,13.98
2018-05-25T03:14:17.561Z,13.98
2018-05-25T03:16:45.116Z,13.98
2018-05-25T03:19:12.704Z,13.97
2018-05-25T03:21:40.212Z,13.92
2018-05-25T03:24:07.713Z,13.88
2018-05-25T03:26:35.294Z,12.41
2018-05-25T03:29:02.787Z,13.78
2018-05-25T03:31:30.330Z,13.76
2018-05-25T03:33:57.832Z,13.76
2018-05-25T03:36:25.341Z,13.75
2018-05-25T03:38:52.882Z,13.73
2018-05-25T03:41:20.387Z,13.71
2018-05-25T03:43:47.917Z,13.68
2018-05-25T03:46:15.436Z,13.72
2018-05-25T03:48:42.949Z,13.78
2018-05-25T03:51:10.528Z,13.83
2018-05-25T03:53:38.025Z,13.83
2018-05-25T03:56:05.555Z,13.87
2018-05-25T03:58:44.749Z,13.97
2018-05-25T04:01:24.347Z,14.06
2018-05-25T04:03:51.866Z,14.17
2018-05-25T04:06:19.359Z,14.27
2018-05-25T04:08:47.726Z,14.30
2018-05-25T04:11:15.259Z,14.38
2018-05-25T04:13:42.821Z,14.42
2018-05-25T04:16:10.393Z,14.50
2018-05-25T04:18:37.894Z,14.62
2018-05-25T04:21:05.419Z,14.62
2018-05-25T04:23:32.918Z,14.57
2018-05-25T04:26:00.482Z,14.54
2018-05-25T04:28:28.011Z,14.55
2018-05-25T04:30:55.532Z,14.53
2018-05-25T04:33:23.070Z,14.56
2018-05-25T04:35:50.575Z,14.59
2018-05-25T04:38:18.083Z,14.78
2018-05-25T04:40:45.618Z,14.89
2018-05-25T04:43:13.175Z,15.02
2018-05-25T04:45:40.656Z,15.06
2018-05-25T04:48:08.240Z,15.17
2018-05-25T04:50:35.745Z,15.26
2018-05-25T04:53:04.475Z,15.41
2018-05-25T04:55:31.997Z,15.48
2018-05-25T04:57:59.517Z,15.64
2018-05-25T05:00:27.076Z,15.67
2018-05-25T05:02:55.110Z,15.79
2018-05-25T05:05:22.630Z,15.79
2018-05-25T05:07:50.209Z,15.81
2018-05-25T05:10:17.713Z,15.88
2018-05-25T05:12:45.262Z,16.02
2018-05-25T05:15:12.810Z,16.22
2018-05-25T05:17:40.394Z,16.35
2018-05-25T05:20:07.923Z,16.45
2018-05-25T05:22:35.434Z,16.50
2018-05-25T05:25:02.969Z,16.52
2018-05-25T05:27:30.476Z,16.70
2018-05-25T05:29:58.034Z,16.80
2018-05-25T05:32:25.559Z,16.84
2018-05-25T05:34:53.077Z,16.83
2018-05-25T05:37:20.626Z,16.93
2018-05-25T05:39:48.180Z,16.90
2018-05-25T05:42:15.718Z,16.99
2018-05-25T05:44:43.255Z,17.01
2018-05-25T05:47:10.814Z,17.69
2018-05-25T05:49:38.325Z,17.89
2018-05-25T05:52:05.869Z,17.98
2018-05-25T05:54:33.433Z,18.37
2018-05-25T05:57:00.957Z,19.75
2018-05-25T05:59:28.463Z,20.02
2018-05-25T06:01:55.997Z,19.79
2018-05-25T06:04:23.560Z,19.44
2018-05-25T06:06:51.129Z,19.41
2018-05-25T06:09:18.642Z,19.34
2018-05-25T06:11:46.163Z,19.16
2018-05-25T06:14:13.703Z,19.12
2018-05-25T06:16:41.234Z,19.30
2018-05-25T06:19:08.826Z,20.17
2018-05-25T06:21:36.391Z,22.97
2018-05-25T06:24:03.920Z,24.82
2018-05-25T06:26:31.509Z,26.93
2018-05-25T06:28:59.656Z,27.96
2018-05-25T06:31:27.217Z,27.74
2018-05-25T06:33:54.792Z,29.11
2018-05-25T06:36:22.306Z,29.39
2018-05-25T06:38:49.834Z,30.11
2018-05-25T06:41:17.364Z,30.91
2018-05-25T06:43:44.897Z,30.26
2018-05-25T06:46:12.405Z,30.36
2018-05-25T06:48:39.982Z,28.43
2018-05-25T06:51:07.501Z,26.89
2018-05-25T06:53:35.008Z,28.01
2018-05-25T06:56:02.546Z,29.33
2018-05-25T06:58:30.079Z,27.70
2018-05-25T07:00:57.604Z,27.55
2018-05-25T07:03:25.177Z,29.76
2018-05-25T07:05:52.661Z,31.38
2018-05-25T07:08:20.212Z,31.67
2018-05-25T07:10:47.705Z,31.47
2018-05-25T07:13:15.212Z,31.73
2018-05-25T07:15:42.850Z,30.45
2018-05-25T07:18:10.338Z,31.61
2018-05-25T07:20:37.928Z,32.18
2018-05-25T07:23:05.417Z,32.21
2018-05-25T07:25:32.930Z,32.60
2018-05-25T07:28:00.450Z,32.73
2018-05-25T07:30:27.959Z,34.34
2018-05-25T07:32:55.521Z,34.55
2018-05-25T07:35:23.034Z,34.63
2018-05-25T07:37:50.575Z,34.55
2018-05-25T07:40:18.193Z,34.68
2018-05-25T07:42:45.712Z,34.06
2018-05-25T07:45:13.268Z,34.55
2018-05-25T07:47:40.886Z,34.49
2018-05-25T07:50:08.385Z,35.70
2018-05-25T07:52:35.909Z,36.05
2018-05-25T07:55:03.406Z,35.81
2018-05-25T07:57:30.923Z,35.34
2018-05-25T07:59:58.410Z,35.88
2018-05-25T08:02:25.931Z,36.43
2018-05-25T08:04:53.457Z,36.34
2018-05-25T08:07:21.002Z,36.81
2018-05-25T08:09:48.669Z,36.70
2018-05-25T08:12:16.193Z,36.85
2018-05-25T08:14:43.993Z,36.64
2018-05-25T08:17:11.951Z,36.45
2018-05-25T08:19:39.454Z,37.21
2018-05-25T08:22:06.994Z,37.21
2018-05-25T08:24:34.506Z,36.98
2018-05-25T08:29:35.954Z,37.48
2018-05-25T08:32:04.372Z,37.69
2018-05-25T08:34:46.842Z,37.33
2018-05-25T08:37:14.334Z,36.52
2018-05-25T08:39:41.855Z,36.04
2018-05-25T08:42:09.387Z,36.77
2018-05-25T08:44:36.895Z,32.72
2018-05-25T08:47:04.459Z,29.84
2018-05-25T08:49:31.976Z,27.80
2018-05-25T08:51:59.492Z,28.13
2018-05-25T08:54:27.077Z,33.49
2018-05-25T08:56:54.594Z,34.84
2018-05-25T08:59:22.126Z,34.19
2018-05-25T09:01:49.644Z,33.74
2018-05-25T09:04:17.151Z,33.32
2018-05-25T09:06:44.740Z,34.07
2018-05-25T09:09:12.339Z,35.66
2018-05-25T09:11:39.927Z,36.77
2018-05-25T09:14:07.483Z,35.36
2018-05-25T09:16:35.033Z,35.07
2018-05-25T09:19:02.634Z,35.49
2018-05-25T09:21:30.150Z,34.82
2018-05-25T09:23:57.688Z,33.68
2018-05-25T09:26:25.193Z,31.89
2018-05-25T09:28:52.729Z,33.35
2018-05-25T09:31:20.266Z,31.25
2018-05-25T09:33:47.802Z,30.50
2018-05-25T09:36:15.379Z,29.59
2018-05-25T09:38:42.921Z,32.30
2018-05-25T09:41:10.452Z,32.19
2018-05-25T09:43:38.725Z,32.71
2018-05-25T09:46:06.253Z,33.97
2018-05-25T09:48:33.880Z,33.07
2018-05-25T09:51:01.389Z,32.16
2018-05-25T09:53:28.873Z,32.92
2018-05-25T09:55:56.482Z,34.15
2018-05-25T09:58:23.994Z,33.68
2018-05-25T10:00:52.380Z,34.31
2018-05-25T10:03:19.901Z,35.07
2018-05-25T10:05:47.500Z,35.43
2018-05-25T10:08:15.100Z,34.64
2018-05-25T10:10:42.709Z,35.08
2018-05-25T10:13:10.210Z,35.07
2018-05-25T10:15:37.767Z,35.81
2018-05-25T10:18:05.376Z,35.66
2018-05-25T10:20:32.873Z,34.53
2018-05-25T10:23:00.431Z,36.17
2018-05-25T10:25:27.919Z,34.90
2018-05-25T10:27:55.472Z,34.24
2018-05-25T10:30:23.078Z,34.66
2018-05-25T10:32:50.611Z,33.60
2018-05-25T10:35:18.139Z,32.29
2018-05-25T10:37:45.636Z,33.15
2018-05-25T10:40:13.176Z,32.00
2018-05-25T10:42:40.713Z,32.30
2018-05-25T10:45:08.235Z,33.58
2018-05-25T10:47:35.753Z,35.57
2018-05-25T10:50:03.397Z,35.50
2018-05-25T10:52:30.926Z,35.51
2018-05-25T10:54:58.468Z,33.33
2018-05-25T10:57:25.985Z,32.03
2018-05-25T10:59:53.582Z,32.33
2018-05-25T11:02:21.146Z,32.30
2018-05-25T11:04:48.783Z,32.41
2018-05-25T11:07:16.405Z,32.96
2018-05-25T11:09:45.194Z,33.67
2018-05-25T11:12:12.827Z,32.78
2018-05-25T11:14:40.427Z,31.74
2018-05-25T11:17:08.077Z,31.89
2018-05-25T11:19:36.672Z,31.89
2018-05-25T11:22:04.429Z,31.91
2018-05-25T11:24:31.976Z,30.17
2018-05-25T11:26:59.612Z,29.51
2018-05-25T11:29:27.255Z,28.96
2018-05-25T11:31:54.870Z,28.68
2018-05-25T11:34:22.454Z,28.74
2018-05-25T11:36:50.029Z,28.29
2018-05-25T11:39:17.536Z,28.39
2018-05-25T11:41:45.129Z,29.82
2018-05-25T11:44:12.669Z,30.17
2018-05-25T11:46:40.162Z,28.57
2018-05-25T11:49:07.725Z,27.81
2018-05-25T11:51:35.282Z,28.56
2018-05-25T11:54:02.781Z,28.77
2018-05-25T11:56:30.374Z,28.61
2018-05-25T11:58:57.873Z,28.46
2018-05-25T12:01:25.418Z,28.55
2018-05-25T12:03:52.957Z,28.31
2018-05-25T12:06:20.513Z,28.51
2018-05-25T12:08:48.124Z,28.55
2018-05-25T12:11:15.606Z,28.41
2018-05-25T12:13:43.194Z,28.36
2018-05-25T12:16:10.693Z,28.42
2018-05-25T12:18:38.838Z,28.34
2018-05-25T12:21:06.367Z,28.33
2018-05-25T12:23:34.542Z,28.34
2018-05-25T12:26:02.101Z,28.44
2018-05-25T12:28:29.600Z,28.55
2018-05-25T12:30:57.128Z,27.96
2018-05-25T12:33:24.666Z,26.93
2018-05-25T12:35:52.471Z,27.37
2018-05-25T12:38:19.999Z,27.38
2018-05-25T12:40:47.524Z,27.22
2018-05-25T12:43:15.046Z,27.51
2018-05-25T12:45:42.561Z,27.21
2018-05-25T12:48:10.091Z,27.25
2018-05-25T12:50:37.623Z,27.09
2018-05-25T12:53:05.256Z,27.15
2018-05-25T12:55:32.777Z,27.61
2018-05-25T12:58:00.349Z,27.77
2018-05-25T13:00:27.844Z,27.98
2018-05-25T13:02:55.373Z,28.34
2018-05-25T13:05:22.900Z,28.75
2018-05-25T13:07:50.422Z,27.86
2018-05-25T13:10:17.963Z,27.72
2018-05-25T13:12:45.536Z,27.63
2018-05-25T13:15:13.101Z,27.08
2018-05-25T13:17:40.623Z,26.58
2018-05-25T13:20:08.129Z,26.85
2018-05-25T13:22:35.667Z,27.36
2018-05-25T13:25:03.233Z,27.53
2018-05-25T13:27:31.135Z,27.21
2018-05-25T13:29:58.746Z,26.75
2018-05-25T13:32:26.277Z,26.74
2018-05-25T13:34:53.802Z,26.20
2018-05-25T13:37:21.351Z,24.15
2018-05-25T13:39:48.851Z,23.26
2018-05-25T13:42:16.428Z,22.74
2018-05-25T13:44:44.051Z,22.25
2018-05-25T13:47:11.589Z,21.83
2018-05-25T13:49:39.121Z,21.55
2018-05-25T13:52:06.666Z,21.10
2018-05-25T13:54:34.201Z,20.31
2018-05-25T13:57:01.760Z,20.42
2018-05-25T13:59:29.323Z,20.24
2018-05-25T14:01:56.898Z,19.81
2018-05-25T14:04:24.415Z,19.61
2018-05-25T14:06:51.955Z,19.08
2018-05-25T14:09:19.464Z,18.63
2018-05-25T14:11:46.988Z,18.38
2018-05-25T14:14:14.541Z,17.89
2018-05-25T14:16:42.135Z,-142.09
2018-05-25T14:19:09.702Z,-142.09
2018-05-25T14:21:37.306Z,-142.09
2018-05-25T14:24:04.862Z,-142.09
2018-05-25T14:26:32.431Z,-142.09
2018-05-25T14:28:59.944Z,-142.09
2018-05-25T14:31:27.533Z,-142.09
2018-05-25T14:33:55.141Z,-142.09
2018-05-25T14:36:22.659Z,-142.09
2018-05-25T14:38:50.355Z,-142.09
2018-05-25T14:41:18.031Z,-142.09
2018-05-25T14:43:45.581Z,-142.09
2018-05-25T14:46:13.103Z,-142.09
2018-05-25T14:48:40.671Z,-142.09
2018-05-25T14:51:08.301Z,-142.09
2018-05-25T14:53:35.865Z,-142.09
2018-05-25T14:56:03.453Z,-142.09
2018-05-25T14:58:30.984Z,-142.09
2018-05-25T15:00:58.546Z,-142.09
2018-05-25T15:03:26.102Z,-142.09
2018-05-25T15:05:53.641Z,-142.09
2018-05-25T15:08:21.201Z,-142.09
2018-05-25T15:10:48.798Z,-142.09
2018-05-25T15:13:16.349Z,-142.09
2018-05-25T15:15:43.991Z,-142.09
2018-05-25T15:18:11.514Z,-142.09
2018-05-25T15:20:39.117Z,-142.09
2018-05-25T15:23:06.645Z,-142.09
2018-05-25T15:25:34.211Z,-142.09
2018-05-25T15:28:01.837Z,-142.09
2018-05-25T15:30:29.382Z,-142.09
2018-05-25T15:32:57.575Z,-142.09
2018-05-25T15:35:25.157Z,-142.09
2018-05-25T15:37:52.727Z,-142.09
2018-05-25T15:40:20.853Z,-142.09
2018-05-25T15:42:48.387Z,-142.09
2018-05-25T15:45:15.996Z,-142.09
2018-05-25T15:47:44.353Z,-142.09
2018-05-25T15:50:11.915Z,-142.09
2018-05-25T15:52:39.471Z,-142.09
2018-05-25T15:55:07.000Z,-142.09
2018-05-25T15:57:34.568Z,-142.09
2018-05-25T16:00:02.083Z,-142.09
2018-05-25T16:02:29.668Z,-142.09
2018-05-25T16:04:57.281Z,-142.09
2018-05-25T16:07:24.808Z,-142.09
2018-05-25T16:09:52.387Z,-142.09
2018-05-25T16:12:19.920Z,-142.09
2018-05-25T16:14:47.463Z,-142.09
2018-05-25T16:17:15.040Z,-142.09
2018-05-25T16:19:42.638Z,-142.09
2018-05-25T16:22:10.190Z,-142.09
2018-05-25T16:24:37.723Z,-142.09
2018-05-25T16:27:05.267Z,-142.09
2018-05-25T16:29:32.834Z,-142.09
2018-05-25T16:32:00.403Z,-142.09
2018-05-25T16:34:27.958Z,-142.09
2018-05-25T16:36:55.598Z,-142.09
2018-05-25T16:39:23.147Z,-142.09
2018-05-25T16:41:50.710Z,-142.09
2018-05-25T16:44:18.246Z,-142.09
2018-05-25T16:46:45.829Z,-142.09
2018-05-25T16:49:13.398Z,-142.09
2018-05-25T16:51:40.998Z,-142.09
2018-05-25T16:54:08.537Z,-142.09
2018-05-25T16:56:36.103Z,-142.09
2018-05-25T16:59:03.686Z,-142.09
2018-05-25T17:01:31.309Z,-142.09
2018-05-25T17:03:58.911Z,-142.09
2018-05-25T17:06:30.091Z,-142.09
2018-05-25T17:08:57.813Z,-142.09
2018-05-25T17:11:25.423Z,-142.09
2018-05-25T17:13:52.993Z,-142.09
2018-05-25T17:16:20.525Z,-142.09
2018-05-25T17:18:48.129Z,-142.09
2018-05-25T17:21:15.651Z,-142.09
2018-05-25T17:23:43.247Z,-142.09
2018-05-25T17:26:12.905Z,-142.09
2018-05-25T17:28:40.494Z,-142.09
2018-05-25T17:31:08.072Z,-142.09
2018-05-25T17:33:35.658Z,-142.09
2018-05-25T17:36:03.290Z,-142.09
2018-05-25T17:38:30.863Z,-142.09
2018-05-25T17:40:58.495Z,-142.09
2018-05-25T17:43:26.135Z,-142.09
2018-05-25T17:45:53.746Z,-142.09
2018-05-25T17:48:22.268Z,-142.09
2018-05-25T17:50:49.814Z,-142.09
2018-05-25T17:53:17.459Z,-142.09
2018-05-25T17:55:45.016Z,-142.09
2018-05-25T17:58:12.591Z,-142.09
2018-05-25T18:00:40.174Z,-142.09
2018-05-25T18:03:09.735Z,-142.09
2018-05-25T18:05:37.314Z,-142.09
2018-05-25T18:08:04.914Z,-142.09
2018-05-25T18:10:32.462Z,-142.09
2018-05-25T18:13:00.326Z,-142.09
2018-05-25T18:15:27.915Z,-142.09
2018-05-25T18:17:55.542Z,-142.09
2018-05-25T18:20:23.208Z,-142.09
2018-05-25T18:22:50.795Z,-142.09
2018-05-25T18:25:18.350Z,-142.09
2018-05-25T18:27:45.942Z,-142.09
2018-05-25T18:30:13.463Z,-142.09
2018-05-25T18:32:41.008Z,-142.09
2018-05-25T18:37:43.376Z,-142.09
2018-05-25T18:40:10.920Z,-142.09
2018-05-25T18:42:38.484Z,-142.09
2018-05-25T18:45:06.105Z,-142.09
2018-05-25T18:47:34.380Z,-142.09
2018-05-25T18:50:01.954Z,-142.09
2018-05-25T18:52:29.523Z,-142.09
2018-05-25T18:54:57.105Z,-142.09
2018-05-25T18:57:24.719Z,-142.09
2018-05-25T18:59:52.257Z,-142.09
2018-05-25T19:02:19.812Z,-142.09
2018-05-25T19:04:47.416Z,-142.09
2018-05-25T19:07:14.935Z,-142.09
2018-05-25T19:09:42.520Z,-142.09
2018-05-25T19:12:10.052Z,-142.09
2018-05-25T19:14:37.845Z,-142.09
2018-05-25T19:17:05.468Z,-142.09
2018-05-25T19:19:33.080Z,-142.09
2018-05-25T19:22:00.680Z,-142.09
2018-05-25T19:24:28.657Z,-142.09
2018-05-25T19:26:56.387Z,-142.09
2018-05-25T19:29:24.025Z,-142.09
2018-05-25T19:31:51.646Z,-142.09
2018-05-25T19:34:19.378Z,-142.09
2018-05-25T19:36:46.942Z,-142.09
2018-05-25T19:39:14.465Z,-142.09
2018-05-25T19:41:42.020Z,-142.09
2018-05-25T19:44:09.681Z,-142.09
2018-05-25T19:46:37.234Z,-142.09
2018-05-25T19:49:04.797Z,-142.09
2018-05-25T19:51:32.326Z,-142.09
2018-05-25T19:53:59.885Z,-142.09
2018-05-25T19:56:27.429Z,-142.09
2018-05-25T19:58:54.987Z,-142.09
2018-05-25T20:01:22.510Z,-142.09
2018-05-25T20:03:50.042Z,-142.09
2018-05-25T20:06:17.600Z,-142.09
2018-05-25T20:08:45.130Z,-142.09
2018-05-25T20:11:12.697Z,-142.09
2018-05-25T20:13:40.294Z,-142.09
2018-05-25T20:16:07.854Z,-142.09
2018-05-25T20:18:35.403Z,-142.09
2018-05-25T20:21:03.030Z,-142.09
2018-05-25T20:23:30.601Z,-142.09
2018-05-25T20:25:58.209Z,-142.09
2018-05-25T20:28:25.745Z,-142.09
2018-05-25T20:30:53.334Z,-142.09
2018-05-25T20:33:20.926Z,-142.09
2018-05-25T20:35:48.537Z,-142.09
2018-05-25T20:38:16.081Z,-142.09
2018-05-25T20:40:43.681Z,-142.09
2018-05-25T20:43:11.362Z,-142.09
2018-05-25T20:45:38.906Z,-142.09
2018-05-25T20:48:06.455Z,-142.09
2018-05-25T20:50:33.999Z,-142.09
2018-05-25T20:53:01.529Z,-142.09
2018-05-25T20:55:29.070Z,-142.09
2018-05-25T20:57:56.607Z,-142.09
2018-05-25T21:00:24.181Z,-142.09
2018-05-25T21:02:51.701Z,-142.09
2018-05-25T21:05:19.225Z,-142.09
2018-05-25T21:07:46.807Z,-142.09
2018-05-25T21:10:14.387Z,-142.09
2018-05-25T21:12:41.967Z,-142.09
2018-05-25T21:15:09.565Z,-142.09
2018-05-25T21:17:37.094Z,-142.09
2018-05-25T21:20:04.679Z,-142.09
2018-05-25T21:22:32.230Z,-142.09
2018-05-25T21:24:59.785Z,-142.09
2018-05-25T21:27:27.318Z,-142.09
2018-05-25T21:29:54.908Z,-142.09
2018-05-25T21:32:22.487Z,-142.09
2018-05-25T21:34:50.026Z,-142.09
2018-05-25T21:37:17.653Z,-142.09
2018-05-25T21:39:45.180Z,-142.09
2018-05-25T21:42:12.707Z,-142.09
2018-05-25T21:44:40.257Z,-142.09
2018-05-25T21:47:07.829Z,-142.09
2018-05-25T21:49:35.431Z,-142.09
2018-05-25T21:52:02.993Z,-142.09
2018-05-25T21:54:30.533Z,-142.09
2018-05-25T21:56:58.102Z,-142.09
2018-05-25T21:59:25.628Z,-142.09
2018-05-25T22:01:53.234Z,-142.09
2018-05-25T22:04:20.788Z,-142.09
2018-05-25T22:06:48.321Z,-142.09
2018-05-25T22:09:15.893Z,-142.09
2018-05-25T22:11:43.538Z,-142.09
2018-05-25T22:14:11.088Z,-142.09
2018-05-25T22:16:38.641Z,-142.09
2018-05-25T22:19:06.235Z,-142.09
2018-05-25T22:21:33.774Z,-142.09
2018-05-25T22:24:01.368Z,-142.09
2018-05-25T22:26:28.936Z,-142.09
2018-05-25T22:28:56.499Z,-142.09
2018-05-25T22:31:24.026Z,-142.09
2018-05-25T22:33:51.583Z,-142.09
2018-05-25T22:36:19.131Z,-142.09
2018-05-25T22:38:46.731Z,-142.09
2018-05-25T22:41:14.262Z,-142.09
2018-05-25T22:43:53.554Z,-142.09
2018-05-25T22:46:32.898Z,-142.09
2018-05-25T22:49:12.272Z,-142.09
2018-05-25T22:51:51.682Z,-142.09
2018-05-25T22:54:34.525Z,-142.09
2018-05-25T22:57:02.056Z,-142.09
2018-05-25T22:59:29.601Z,-142.09
2018-05-25T23:01:57.196Z,-142.09
2018-05-25T23:04:24.729Z,-142.09
2018-05-25T23:06:52.298Z,-142.09
2018-05-25T23:09:19.901Z,-142.09
2018-05-25T23:11:47.456Z,-142.09
2018-05-25T23:14:15.013Z,-142.09
2018-05-25T23:16:42.579Z,-142.09
2018-05-25T23:19:10.166Z,-142.09
2018-05-25T23:21:37.724Z,-142.09
2018-05-25T23:24:05.307Z,-142.09
2018-05-25T23:26:32.843Z,-142.09
2018-05-25T23:29:00.394Z,-142.09
2018-05-25T23:31:27.924Z,-142.09
2018-05-25T23:33:55.535Z,-142.09
2018-05-25T23:36:23.062Z,-142.09
2018-05-25T23:38:50.613Z,-142.09
2018-05-25T23:41:18.218Z,-142.09
2018-05-25T23:43:45.859Z,-142.09
2018-05-25T23:46:13.468Z,-142.09
2018-05-25T23:48:41.006Z,-142.09
2018-05-25T23:51:08.540Z,-142.09
2018-05-25T23:53:36.090Z,-142.09
2018-05-25T23:56:03.630Z,-142.09
2018-05-25T23:58:31.199Z,-142.09
